sensor_id;sensor_type;location;lat;lon;timestamp;pressure;altitude;pressure_sealevel;temperature;humidity
6615;BME280;3343;42.896;23.912;2022-07-29T02:01:52;96588.69;;;24.83;92.52
6615;BME280;3343;42.896;23.912;2022-07-29T02:04:20;96595.59;;;25.04;91.22
6615;BME280;3343;42.896;23.912;2022-07-29T02:06:51;96594.03;;;26.63;82.58
6615;BME280;3343;42.896;23.912;2022-07-29T02:09:21;96593.53;;;27.60;75.98
6615;BME280;3343;42.896;23.912;2022-07-29T02:11:51;96590.19;;;27.68;74.54
6615;BME280;3343;42.896;23.912;2022-07-29T02:14:21;96592.94;;;27.82;72.99
6615;BME280;3343;42.896;23.912;2022-07-29T02:16:55;96590.88;;;27.92;72.18
6615;BME280;3343;42.896;23.912;2022-07-29T02:19:25;96587.66;;;27.90;71.50
6615;BME280;3343;42.896;23.912;2022-07-29T02:21:54;96586.81;;;27.76;72.35
6615;BME280;3343;42.896;23.912;2022-07-29T02:24:23;96590.84;;;28.25;67.91
6615;BME280;3343;42.896;23.912;2022-07-29T02:26:53;96587.28;;;27.97;68.20
6615;BME280;3343;42.896;23.912;2022-07-29T02:29:23;96597.59;;;27.95;68.94
6615;BME280;3343;42.896;23.912;2022-07-29T02:31:52;96598.16;;;28.25;68.16
6615;BME280;3343;42.896;23.912;2022-07-29T02:34:21;96598.13;;;28.71;65.59
6615;BME280;3343;42.896;23.912;2022-07-29T02:36:50;96600.81;;;28.11;67.70
6615;BME280;3343;42.896;23.912;2022-07-29T02:39:19;96595.13;;;28.12;67.63
6615;BME280;3343;42.896;23.912;2022-07-29T02:41:50;96587.56;;;27.63;69.44
6615;BME280;3343;42.896;23.912;2022-07-29T02:44:19;96588.16;;;27.22;71.47
6615;BME280;3343;42.896;23.912;2022-07-29T02:46:50;96593.53;;;26.80;74.04
6615;BME280;3343;42.896;23.912;2022-07-29T02:49:30;96585.03;;;25.57;80.57
6615;BME280;3343;42.896;23.912;2022-07-29T02:52:00;96582.66;;;25.50;81.67
6615;BME280;3343;42.896;23.912;2022-07-29T02:54:31;96584.41;;;25.65;81.22
6615;BME280;3343;42.896;23.912;2022-07-29T02:57:04;96588.31;;;26.17;78.20
6615;BME280;3343;42.896;23.912;2022-07-29T02:59:36;96587.47;;;26.45;76.44
6615;BME280;3343;42.896;23.912;2022-07-29T03:02:05;96587.41;;;26.74;74.68
6615;BME280;3343;42.896;23.912;2022-07-29T03:04:37;96594.19;;;26.72;75.01
6615;BME280;3343;42.896;23.912;2022-07-29T03:07:06;96590.25;;;26.83;73.92
6615;BME280;3343;42.896;23.912;2022-07-29T03:09:35;96582.75;;;27.22;71.70
6615;BME280;3343;42.896;23.912;2022-07-29T03:12:04;96579.34;;;26.93;72.86
6615;BME280;3343;42.896;23.912;2022-07-29T03:14:31;96589.63;;;27.15;71.70
6615;BME280;3343;42.896;23.912;2022-07-29T03:16:59;96579.81;;;27.19;71.65
6615;BME280;3343;42.896;23.912;2022-07-29T03:19:26;96583.41;;;27.14;71.31
6615;BME280;3343;42.896;23.912;2022-07-29T03:21:56;96590.28;;;27.25;71.03
6615;BME280;3343;42.896;23.912;2022-07-29T03:24:25;96588.69;;;27.57;69.78
6615;BME280;3343;42.896;23.912;2022-07-29T03:26:54;96589.97;;;27.65;69.02
6615;BME280;3343;42.896;23.912;2022-07-29T03:29:21;96590.50;;;27.99;67.59
6615;BME280;3343;42.896;23.912;2022-07-29T03:31:48;96589.53;;;28.22;65.98
6615;BME280;3343;42.896;23.912;2022-07-29T03:34:15;96592.75;;;27.03;71.85
6615;BME280;3343;42.896;23.912;2022-07-29T03:36:42;96592.47;;;26.57;75.30
6615;BME280;3343;42.896;23.912;2022-07-29T03:39:15;96586.38;;;26.94;73.60
6615;BME280;3343;42.896;23.912;2022-07-29T03:41:44;96590.50;;;27.29;70.17
6615;BME280;3343;42.896;23.912;2022-07-29T03:44:13;96584.34;;;27.61;67.53
6615;BME280;3343;42.896;23.912;2022-07-29T03:46:43;96582.81;;;27.36;69.14
6615;BME280;3343;42.896;23.912;2022-07-29T03:49:11;96579.47;;;27.07;70.73
6615;BME280;3343;42.896;23.912;2022-07-29T03:51:38;96582.22;;;27.77;67.37
6615;BME280;3343;42.896;23.912;2022-07-29T03:54:05;96583.28;;;28.08;66.11
6615;BME280;3343;42.896;23.912;2022-07-29T03:56:39;96580.22;;;27.82;68.20
6615;BME280;3343;42.896;23.912;2022-07-29T03:59:07;96573.84;;;27.92;67.45
6615;BME280;3343;42.896;23.912;2022-07-29T04:01:35;96586.84;;;27.90;67.68
6615;BME280;3343;42.896;23.912;2022-07-29T04:04:03;96585.66;;;27.96;67.58
6615;BME280;3343;42.896;23.912;2022-07-29T04:06:38;96586.47;;;27.64;67.91
6615;BME280;3343;42.896;23.912;2022-07-29T04:09:05;96582.94;;;27.82;68.34
6615;BME280;3343;42.896;23.912;2022-07-29T04:11:34;96587.22;;;28.16;66.78
6615;BME280;3343;42.896;23.912;2022-07-29T04:14:01;96587.47;;;27.87;67.37
6615;BME280;3343;42.896;23.912;2022-07-29T04:16:28;96584.13;;;27.76;68.27
6615;BME280;3343;42.896;23.912;2022-07-29T04:18:55;96579.56;;;27.72;68.78
6615;BME280;3343;42.896;23.912;2022-07-29T04:21:22;96582.56;;;27.89;68.04
6615;BME280;3343;42.896;23.912;2022-07-29T04:23:49;96592.59;;;27.70;70.42
6615;BME280;3343;42.896;23.912;2022-07-29T04:26:16;96589.06;;;27.88;69.44
6615;BME280;3343;42.896;23.912;2022-07-29T04:28:45;96595.13;;;28.12;69.30
6615;BME280;3343;42.896;23.912;2022-07-29T04:31:12;96596.47;;;27.82;71.11
6615;BME280;3343;42.896;23.912;2022-07-29T04:33:39;96595.97;;;27.43;73.76
6615;BME280;3343;42.896;23.912;2022-07-29T04:36:06;96600.41;;;27.34;74.86
6615;BME280;3343;42.896;23.912;2022-07-29T04:38:33;96594.00;;;27.29;74.61
6615;BME280;3343;42.896;23.912;2022-07-29T04:41:00;96603.19;;;27.10;75.50
6615;BME280;3343;42.896;23.912;2022-07-29T04:43:27;96604.88;;;27.06;75.52
6615;BME280;3343;42.896;23.912;2022-07-29T04:45:55;96604.78;;;26.87;76.32
6615;BME280;3343;42.896;23.912;2022-07-29T04:48:22;96614.19;;;26.94;76.83
6615;BME280;3343;42.896;23.912;2022-07-29T04:50:48;96612.50;;;26.75;78.04
6615;BME280;3343;42.896;23.912;2022-07-29T04:53:15;96609.34;;;26.91;77.79
6615;BME280;3343;42.896;23.912;2022-07-29T04:55:43;96616.84;;;27.18;76.66
6615;BME280;3343;42.896;23.912;2022-07-29T04:58:10;96615.09;;;27.46;75.38
6615;BME280;3343;42.896;23.912;2022-07-29T05:00:37;96620.06;;;27.39;75.44
6615;BME280;3343;42.896;23.912;2022-07-29T05:03:05;96620.41;;;27.51;75.43
6615;BME280;3343;42.896;23.912;2022-07-29T05:05:32;96621.31;;;27.47;75.04
6615;BME280;3343;42.896;23.912;2022-07-29T05:07:59;96624.59;;;27.44;75.84
6615;BME280;3343;42.896;23.912;2022-07-29T05:10:26;96615.38;;;27.82;73.59
6615;BME280;3343;42.896;23.912;2022-07-29T05:12:53;96624.06;;;27.98;72.84
6615;BME280;3343;42.896;23.912;2022-07-29T05:15:20;96636.00;;;28.11;72.74
6615;BME280;3343;42.896;23.912;2022-07-29T05:17:47;96626.13;;;27.87;72.46
6615;BME280;3343;42.896;23.912;2022-07-29T05:20:15;96632.75;;;28.88;68.10
6615;BME280;3343;42.896;23.912;2022-07-29T05:22:43;96626.59;;;28.68;67.53
6615;BME280;3343;42.896;23.912;2022-07-29T05:25:10;96630.84;;;29.38;65.13
6615;BME280;3343;42.896;23.912;2022-07-29T05:27:37;96634.81;;;28.17;70.73
6615;BME280;3343;42.896;23.912;2022-07-29T05:30:05;96628.28;;;28.04;71.55
6615;BME280;3343;42.896;23.912;2022-07-29T05:32:32;96639.50;;;28.44;69.71
6615;BME280;3343;42.896;23.912;2022-07-29T05:34:59;96637.78;;;29.30;65.93
6615;BME280;3343;42.896;23.912;2022-07-29T05:37:27;96648.53;;;29.49;64.28
6615;BME280;3343;42.896;23.912;2022-07-29T05:39:54;96644.88;;;29.90;63.11
6615;BME280;3343;42.896;23.912;2022-07-29T05:42:21;96645.84;;;29.94;62.73
6615;BME280;3343;42.896;23.912;2022-07-29T05:44:48;96646.16;;;29.70;63.37
6615;BME280;3343;42.896;23.912;2022-07-29T05:47:15;96644.50;;;29.83;63.58
6615;BME280;3343;42.896;23.912;2022-07-29T05:49:41;96646.56;;;30.30;61.91
6615;BME280;3343;42.896;23.912;2022-07-29T05:52:08;96657.53;;;31.18;59.76
6615;BME280;3343;42.896;23.912;2022-07-29T05:54:37;96649.63;;;31.74;56.14
6615;BME280;3343;42.896;23.912;2022-07-29T05:57:04;96652.66;;;31.72;53.84
6615;BME280;3343;42.896;23.912;2022-07-29T05:59:31;96661.09;;;31.36;54.53
6615;BME280;3343;42.896;23.912;2022-07-29T06:01:58;96661.59;;;31.55;54.23
6615;BME280;3343;42.896;23.912;2022-07-29T06:04:24;96663.69;;;31.67;53.92
6615;BME280;3343;42.896;23.912;2022-07-29T06:06:51;96658.09;;;31.55;52.93
6615;BME280;3343;42.896;23.912;2022-07-29T06:09:18;96662.09;;;31.66;53.43
6615;BME280;3343;42.896;23.912;2022-07-29T06:11:46;96664.88;;;30.69;55.27
6615;BME280;3343;42.896;23.912;2022-07-29T06:14:14;96661.81;;;29.09;64.13
6615;BME280;3343;42.896;23.912;2022-07-29T06:16:41;96654.38;;;29.15;65.09
6615;BME280;3343;42.896;23.912;2022-07-29T06:19:08;96658.28;;;29.23;64.20
6615;BME280;3343;42.896;23.912;2022-07-29T06:21:34;96661.44;;;29.88;63.24
6615;BME280;3343;42.896;23.912;2022-07-29T06:24:01;96646.84;;;30.20;62.54
6615;BME280;3343;42.896;23.912;2022-07-29T06:26:28;96657.78;;;30.99;56.50
6615;BME280;3343;42.896;23.912;2022-07-29T06:28:57;96654.59;;;31.89;55.51
6615;BME280;3343;42.896;23.912;2022-07-29T06:31:24;96643.16;;;32.39;51.08
6615;BME280;3343;42.896;23.912;2022-07-29T06:33:50;96649.75;;;32.20;49.21
6615;BME280;3343;42.896;23.912;2022-07-29T06:36:18;96656.06;;;32.59;50.47
6615;BME280;3343;42.896;23.912;2022-07-29T06:38:45;96664.66;;;33.46;44.01
6615;BME280;3343;42.896;23.912;2022-07-29T06:41:11;96665.81;;;33.66;45.23
6615;BME280;3343;42.896;23.912;2022-07-29T06:43:42;96650.53;;;33.94;43.92
6615;BME280;3343;42.896;23.912;2022-07-29T06:46:13;96648.59;;;33.95;45.06
6615;BME280;3343;42.896;23.912;2022-07-29T06:48:41;96647.72;;;34.36;43.16
6615;BME280;3343;42.896;23.912;2022-07-29T06:51:09;96652.84;;;34.37;44.35
6615;BME280;3343;42.896;23.912;2022-07-29T06:53:37;96643.25;;;34.76;44.41
6615;BME280;3343;42.896;23.912;2022-07-29T06:56:05;96639.31;;;34.65;46.44
6615;BME280;3343;42.896;23.912;2022-07-29T06:58:34;96639.75;;;34.88;44.96
6615;BME280;3343;42.896;23.912;2022-07-29T07:01:03;96625.00;;;34.80;44.41
6615;BME280;3343;42.896;23.912;2022-07-29T07:03:32;96645.19;;;35.12;44.07
6615;BME280;3343;42.896;23.912;2022-07-29T07:05:59;96624.41;;;34.50;44.28
6615;BME280;3343;42.896;23.912;2022-07-29T07:08:26;96638.22;;;34.78;42.17
6615;BME280;3343;42.896;23.912;2022-07-29T07:10:53;96636.50;;;34.74;43.75
6615;BME280;3343;42.896;23.912;2022-07-29T07:13:20;96634.78;;;35.42;42.12
6615;BME280;3343;42.896;23.912;2022-07-29T07:15:47;96638.00;;;35.32;41.54
6615;BME280;3343;42.896;23.912;2022-07-29T07:18:16;96630.25;;;35.22;40.20
6615;BME280;3343;42.896;23.912;2022-07-29T07:20:45;96632.50;;;35.44;40.73
6615;BME280;3343;42.896;23.912;2022-07-29T07:23:11;96637.50;;;35.67;40.22
6615;BME280;3343;42.896;23.912;2022-07-29T07:25:38;96640.50;;;35.37;40.85
6615;BME280;3343;42.896;23.912;2022-07-29T07:28:05;96636.22;;;34.88;42.89
6615;BME280;3343;42.896;23.912;2022-07-29T07:30:32;96641.72;;;34.67;43.33
6615;BME280;3343;42.896;23.912;2022-07-29T07:32:59;96633.66;;;35.31;42.29
6615;BME280;3343;42.896;23.912;2022-07-29T07:35:26;96631.38;;;35.21;42.75
6615;BME280;3343;42.896;23.912;2022-07-29T07:37:55;96634.84;;;35.70;41.18
6615;BME280;3343;42.896;23.912;2022-07-29T07:40:22;96638.81;;;36.13;39.41
6615;BME280;3343;42.896;23.912;2022-07-29T07:42:49;96652.19;;;36.58;39.17
6615;BME280;3343;42.896;23.912;2022-07-29T07:45:16;96647.41;;;36.71;38.51
6615;BME280;3343;42.896;23.912;2022-07-29T07:47:43;96645.19;;;37.24;36.88
6615;BME280;3343;42.896;23.912;2022-07-29T07:50:11;96641.22;;;37.06;36.47
6615;BME280;3343;42.896;23.912;2022-07-29T07:52:46;96635.38;;;36.91;36.75
6615;BME280;3343;42.896;23.912;2022-07-29T07:55:15;96637.34;;;36.91;37.99
6615;BME280;3343;42.896;23.912;2022-07-29T07:57:42;96632.94;;;35.99;39.14
6615;BME280;3343;42.896;23.912;2022-07-29T08:00:10;96631.28;;;36.38;38.87
6615;BME280;3343;42.896;23.912;2022-07-29T08:02:37;96631.69;;;36.84;38.70
6615;BME280;3343;42.896;23.912;2022-07-29T08:05:06;96634.06;;;37.52;37.51
6615;BME280;3343;42.896;23.912;2022-07-29T08:07:33;96640.97;;;37.81;35.61
6615;BME280;3343;42.896;23.912;2022-07-29T08:10:01;96637.72;;;37.40;35.84
6615;BME280;3343;42.896;23.912;2022-07-29T08:12:30;96635.69;;;37.91;35.63
6615;BME280;3343;42.896;23.912;2022-07-29T08:14:57;96633.50;;;37.81;36.48
6615;BME280;3343;42.896;23.912;2022-07-29T08:17:24;96636.97;;;38.36;33.98
6615;BME280;3343;42.896;23.912;2022-07-29T08:19:52;96627.66;;;38.64;34.43
6615;BME280;3343;42.896;23.912;2022-07-29T08:22:18;96631.66;;;39.15;32.79
6615;BME280;3343;42.896;23.912;2022-07-29T08:24:45;96626.94;;;38.93;32.57
6615;BME280;3343;42.896;23.912;2022-07-29T08:27:18;96622.66;;;38.27;33.17
6615;BME280;3343;42.896;23.912;2022-07-29T08:29:46;96616.19;;;38.39;33.71
6615;BME280;3343;42.896;23.912;2022-07-29T08:32:13;96603.22;;;38.85;33.29
6615;BME280;3343;42.896;23.912;2022-07-29T08:34:40;96622.25;;;38.71;33.44
6615;BME280;3343;42.896;23.912;2022-07-29T08:37:08;96622.19;;;38.90;31.74
6615;BME280;3343;42.896;23.912;2022-07-29T08:39:35;96611.78;;;38.57;32.22
6615;BME280;3343;42.896;23.912;2022-07-29T08:42:02;96623.75;;;38.22;32.95
6615;BME280;3343;42.896;23.912;2022-07-29T08:44:29;96608.19;;;38.53;33.46
6615;BME280;3343;42.896;23.912;2022-07-29T08:46:59;96614.81;;;39.21;32.24
6615;BME280;3343;42.896;23.912;2022-07-29T08:49:26;96608.75;;;39.94;30.96
6615;BME280;3343;42.896;23.912;2022-07-29T08:51:53;96606.97;;;39.23;31.52
6615;BME280;3343;42.896;23.912;2022-07-29T08:54:22;96608.06;;;39.74;31.00
6615;BME280;3343;42.896;23.912;2022-07-29T08:56:50;96596.75;;;39.49;31.73
6615;BME280;3343;42.896;23.912;2022-07-29T08:59:19;96600.38;;;38.55;30.88
6615;BME280;3343;42.896;23.912;2022-07-29T09:01:48;96594.75;;;37.48;32.26
6615;BME280;3343;42.896;23.912;2022-07-29T09:04:18;96590.97;;;36.86;33.26
6615;BME280;3343;42.896;23.912;2022-07-29T09:06:47;96582.44;;;36.28;34.81
6615;BME280;3343;42.896;23.912;2022-07-29T09:09:16;96590.31;;;37.08;34.03
6615;BME280;3343;42.896;23.912;2022-07-29T09:11:46;96585.66;;;37.28;33.87
6615;BME280;3343;42.896;23.912;2022-07-29T09:14:14;96587.41;;;38.13;33.19
6615;BME280;3343;42.896;23.912;2022-07-29T09:16:50;96583.63;;;38.64;31.79
6615;BME280;3343;42.896;23.912;2022-07-29T09:19:23;96584.84;;;38.01;32.07
6615;BME280;3343;42.896;23.912;2022-07-29T09:21:51;96581.59;;;37.96;34.03
6615;BME280;3343;42.896;23.912;2022-07-29T09:24:29;96580.09;;;38.17;31.65
6615;BME280;3343;42.896;23.912;2022-07-29T09:27:20;96578.13;;;38.18;32.47
6615;BME280;3343;42.896;23.912;2022-07-29T09:29:56;96572.91;;;38.59;31.62
6615;BME280;3343;42.896;23.912;2022-07-29T09:32:25;96576.66;;;38.96;31.17
6615;BME280;3343;42.896;23.912;2022-07-29T09:35:16;96575.34;;;39.39;30.45
6615;BME280;3343;42.896;23.912;2022-07-29T09:37:46;96573.34;;;39.96;29.90
6615;BME280;3343;42.896;23.912;2022-07-29T09:40:16;96565.47;;;39.98;29.40
6615;BME280;3343;42.896;23.912;2022-07-29T09:42:44;96568.53;;;40.30;29.06
6615;BME280;3343;42.896;23.912;2022-07-29T09:45:12;96572.41;;;40.66;28.38
6615;BME280;3343;42.896;23.912;2022-07-29T09:47:44;96570.28;;;40.05;29.31
6615;BME280;3343;42.896;23.912;2022-07-29T09:50:13;96569.00;;;40.36;29.04
6615;BME280;3343;42.896;23.912;2022-07-29T09:52:49;96568.09;;;40.69;29.33
6615;BME280;3343;42.896;23.912;2022-07-29T09:55:18;96564.84;;;41.08;27.71
6615;BME280;3343;42.896;23.912;2022-07-29T09:57:46;96570.75;;;41.02;27.76
6615;BME280;3343;42.896;23.912;2022-07-29T10:00:15;96564.13;;;41.18;27.82
6615;BME280;3343;42.896;23.912;2022-07-29T10:02:45;96543.34;;;40.76;29.21
6615;BME280;3343;42.896;23.912;2022-07-29T10:05:18;96555.81;;;41.11;27.69
6615;BME280;3343;42.896;23.912;2022-07-29T10:07:48;96555.81;;;41.11;28.30
6615;BME280;3343;42.896;23.912;2022-07-29T10:10:20;96559.25;;;40.93;28.04
6615;BME280;3343;42.896;23.912;2022-07-29T10:12:52;96555.44;;;40.64;28.98
6615;BME280;3343;42.896;23.912;2022-07-29T10:15:21;96553.59;;;40.31;29.78
6615;BME280;3343;42.896;23.912;2022-07-29T10:17:49;96552.41;;;40.32;29.87
6615;BME280;3343;42.896;23.912;2022-07-29T10:20:17;96540.03;;;39.15;31.09
6615;BME280;3343;42.896;23.912;2022-07-29T10:22:44;96543.28;;;38.48;32.06
6615;BME280;3343;42.896;23.912;2022-07-29T10:25:14;96545.84;;;39.10;30.75
6615;BME280;3343;42.896;23.912;2022-07-29T10:27:41;96545.56;;;38.43;32.13
6615;BME280;3343;42.896;23.912;2022-07-29T10:30:10;96543.94;;;39.14;30.57
6615;BME280;3343;42.896;23.912;2022-07-29T10:32:48;96540.88;;;38.96;29.65
6615;BME280;3343;42.896;23.912;2022-07-29T10:35:47;96534.53;;;38.16;32.17
6615;BME280;3343;42.896;23.912;2022-07-29T10:38:47;96534.81;;;39.06;31.31
6615;BME280;3343;42.896;23.912;2022-07-29T10:41:37;96529.78;;;38.89;30.65
6615;BME280;3343;42.896;23.912;2022-07-29T10:44:13;96524.28;;;38.89;31.21
6615;BME280;3343;42.896;23.912;2022-07-29T10:46:41;96520.19;;;39.32;31.07
6615;BME280;3343;42.896;23.912;2022-07-29T10:49:10;96519.41;;;38.79;31.42
6615;BME280;3343;42.896;23.912;2022-07-29T10:51:54;96511.66;;;37.70;32.39
6615;BME280;3343;42.896;23.912;2022-07-29T10:54:43;96511.50;;;37.82;32.52
6615;BME280;3343;42.896;23.912;2022-07-29T10:57:17;96517.09;;;38.81;32.85
6615;BME280;3343;42.896;23.912;2022-07-29T10:59:46;96510.50;;;39.79;29.94
6615;BME280;3343;42.896;23.912;2022-07-29T11:02:42;96509.06;;;39.89;29.63
6615;BME280;3343;42.896;23.912;2022-07-29T11:05:10;96513.94;;;40.47;28.94
6615;BME280;3343;42.896;23.912;2022-07-29T11:07:39;96524.84;;;41.49;27.35
6615;BME280;3343;42.896;23.912;2022-07-29T11:10:21;96511.16;;;41.74;27.46
6615;BME280;3343;42.896;23.912;2022-07-29T11:12:49;96501.75;;;42.21;27.22
6615;BME280;3343;42.896;23.912;2022-07-29T11:15:19;96505.03;;;41.26;27.04
6615;BME280;3343;42.896;23.912;2022-07-29T11:18:13;96492.41;;;41.28;27.19
6615;BME280;3343;42.896;23.912;2022-07-29T11:20:42;96495.19;;;41.32;27.85
6615;BME280;3343;42.896;23.912;2022-07-29T11:23:20;96488.53;;;40.23;28.13
6615;BME280;3343;42.896;23.912;2022-07-29T11:26:14;96495.84;;;41.08;27.31
6615;BME280;3343;42.896;23.912;2022-07-29T11:29:00;96487.56;;;40.01;27.83
6615;BME280;3343;42.896;23.912;2022-07-29T11:31:35;96494.25;;;40.04;28.06
6615;BME280;3343;42.896;23.912;2022-07-29T11:34:19;96492.00;;;41.23;26.64
6615;BME280;3343;42.896;23.912;2022-07-29T11:37:14;96484.31;;;40.91;27.09
6615;BME280;3343;42.896;23.912;2022-07-29T11:39:42;96481.34;;;41.21;27.38
6615;BME280;3343;42.896;23.912;2022-07-29T11:42:40;96480.88;;;41.16;27.39
6615;BME280;3343;42.896;23.912;2022-07-29T11:45:10;96465.41;;;40.38;28.17
6615;BME280;3343;42.896;23.912;2022-07-29T11:47:40;96479.00;;;40.68;28.24
6615;BME280;3343;42.896;23.912;2022-07-29T11:50:09;96466.97;;;39.92;29.21
6615;BME280;3343;42.896;23.912;2022-07-29T11:52:37;96467.31;;;40.31;28.93
6615;BME280;3343;42.896;23.912;2022-07-29T11:55:09;96456.19;;;39.79;29.96
6615;BME280;3343;42.896;23.912;2022-07-29T11:57:44;96459.97;;;40.01;28.36
6615;BME280;3343;42.896;23.912;2022-07-29T12:00:21;96463.91;;;40.00;29.52
6615;BME280;3343;42.896;23.912;2022-07-29T12:02:48;96468.78;;;40.18;29.38
6615;BME280;3343;42.896;23.912;2022-07-29T12:05:16;96461.03;;;39.19;30.09
6615;BME280;3343;42.896;23.912;2022-07-29T12:07:43;96457.13;;;39.54;30.23
6615;BME280;3343;42.896;23.912;2022-07-29T12:10:10;96457.22;;;40.01;29.33
6615;BME280;3343;42.896;23.912;2022-07-29T12:12:36;96464.72;;;40.52;29.21
6615;BME280;3343;42.896;23.912;2022-07-29T12:15:15;96464.06;;;39.10;30.39
6615;BME280;3343;42.896;23.912;2022-07-29T12:17:47;96459.31;;;39.41;30.40
6615;BME280;3343;42.896;23.912;2022-07-29T12:20:22;96455.38;;;39.42;30.71
6615;BME280;3343;42.896;23.912;2022-07-29T12:22:50;96463.75;;;38.89;31.56
6615;BME280;3343;42.896;23.912;2022-07-29T12:25:20;96454.25;;;39.09;31.08
6615;BME280;3343;42.896;23.912;2022-07-29T12:27:47;96459.97;;;37.99;33.47
6615;BME280;3343;42.896;23.912;2022-07-29T12:30:35;96460.63;;;36.92;35.58
6615;BME280;3343;42.896;23.912;2022-07-29T12:33:10;96459.81;;;36.91;35.95
6615;BME280;3343;42.896;23.912;2022-07-29T12:35:38;96463.16;;;37.78;33.73
6615;BME280;3343;42.896;23.912;2022-07-29T12:38:05;96457.72;;;38.27;32.77
6615;BME280;3343;42.896;23.912;2022-07-29T12:40:32;96450.00;;;38.13;33.55
6615;BME280;3343;42.896;23.912;2022-07-29T12:43:10;96460.28;;;38.39;32.98
6615;BME280;3343;42.896;23.912;2022-07-29T12:45:41;96454.28;;;38.34;33.30
6615;BME280;3343;42.896;23.912;2022-07-29T12:48:09;96464.53;;;38.14;33.37
6615;BME280;3343;42.896;23.912;2022-07-29T12:50:50;96461.59;;;38.03;33.31
6615;BME280;3343;42.896;23.912;2022-07-29T12:53:17;96455.50;;;38.13;33.19
6615;BME280;3343;42.896;23.912;2022-07-29T12:55:46;96452.69;;;38.10;33.69
6615;BME280;3343;42.896;23.912;2022-07-29T12:58:25;96463.66;;;38.55;33.37
6615;BME280;3343;42.896;23.912;2022-07-29T13:01:03;96455.09;;;37.46;33.81
6615;BME280;3343;42.896;23.912;2022-07-29T13:03:45;96462.41;;;37.39;34.72
6615;BME280;3343;42.896;23.912;2022-07-29T13:06:35;96456.47;;;37.37;34.06
6615;BME280;3343;42.896;23.912;2022-07-29T13:09:05;96459.38;;;36.23;33.82
6615;BME280;3343;42.896;23.912;2022-07-29T13:11:34;96446.69;;;35.99;34.74
6615;BME280;3343;42.896;23.912;2022-07-29T13:14:01;96446.06;;;35.90;33.42
6615;BME280;3343;42.896;23.912;2022-07-29T13:16:29;96455.06;;;36.22;34.12
6615;BME280;3343;42.896;23.912;2022-07-29T13:19:07;96454.53;;;36.48;35.26
6615;BME280;3343;42.896;23.912;2022-07-29T13:21:35;96454.38;;;36.76;34.94
6615;BME280;3343;42.896;23.912;2022-07-29T13:24:02;96451.44;;;36.33;36.17
6615;BME280;3343;42.896;23.912;2022-07-29T13:26:29;96459.31;;;36.03;37.17
6615;BME280;3343;42.896;23.912;2022-07-29T13:28:57;96464.53;;;36.09;37.37
6615;BME280;3343;42.896;23.912;2022-07-29T13:31:24;96458.00;;;36.45;37.11
6615;BME280;3343;42.896;23.912;2022-07-29T13:33:52;96474.28;;;36.73;33.80
6615;BME280;3343;42.896;23.912;2022-07-29T13:36:19;96469.78;;;35.42;35.92
6615;BME280;3343;42.896;23.912;2022-07-29T13:38:46;96462.81;;;35.17;35.00
6615;BME280;3343;42.896;23.912;2022-07-29T13:41:13;96456.88;;;34.74;34.08
6615;BME280;3343;42.896;23.912;2022-07-29T13:43:39;96451.50;;;34.66;32.02
6615;BME280;3343;42.896;23.912;2022-07-29T13:46:06;96452.25;;;35.03;30.50
6615;BME280;3343;42.896;23.912;2022-07-29T13:48:33;96460.63;;;36.57;29.57
6615;BME280;3343;42.896;23.912;2022-07-29T13:51:02;96458.88;;;37.03;27.92
6615;BME280;3343;42.896;23.912;2022-07-29T13:53:29;96443.31;;;37.88;26.31
6615;BME280;3343;42.896;23.912;2022-07-29T13:55:56;96445.38;;;37.94;28.47
6615;BME280;3343;42.896;23.912;2022-07-29T13:58:23;96450.88;;;37.72;28.67
6615;BME280;3343;42.896;23.912;2022-07-29T14:00:49;96434.88;;;37.77;26.17
6615;BME280;3343;42.896;23.912;2022-07-29T14:03:16;96428.97;;;37.33;26.99
6615;BME280;3343;42.896;23.912;2022-07-29T14:05:43;96417.38;;;37.24;28.43
6615;BME280;3343;42.896;23.912;2022-07-29T14:08:11;96408.72;;;37.41;28.39
6615;BME280;3343;42.896;23.912;2022-07-29T14:10:38;96413.72;;;37.36;28.73
6615;BME280;3343;42.896;23.912;2022-07-29T14:13:05;96418.19;;;37.44;28.63
6615;BME280;3343;42.896;23.912;2022-07-29T14:15:32;96432.22;;;38.07;27.84
6615;BME280;3343;42.896;23.912;2022-07-29T14:17:59;96427.97;;;38.10;29.66
6615;BME280;3343;42.896;23.912;2022-07-29T14:20:26;96429.28;;;38.16;28.62
6615;BME280;3343;42.896;23.912;2022-07-29T14:22:55;96431.25;;;37.50;29.85
6615;BME280;3343;42.896;23.912;2022-07-29T14:25:23;96436.19;;;37.64;31.25
6615;BME280;3343;42.896;23.912;2022-07-29T14:27:50;96430.69;;;37.41;31.42
6615;BME280;3343;42.896;23.912;2022-07-29T14:30:18;96428.91;;;37.14;31.67
6615;BME280;3343;42.896;23.912;2022-07-29T14:32:45;96419.19;;;36.97;32.54
6615;BME280;3343;42.896;23.912;2022-07-29T14:35:12;96431.84;;;37.63;31.32
6615;BME280;3343;42.896;23.912;2022-07-29T14:37:40;96424.25;;;37.34;32.83
6615;BME280;3343;42.896;23.912;2022-07-29T14:40:09;96430.84;;;37.94;32.48
6615;BME280;3343;42.896;23.912;2022-07-29T14:42:37;96414.75;;;37.70;32.86
6615;BME280;3343;42.896;23.912;2022-07-29T14:45:06;96443.84;;;37.97;32.04
6615;BME280;3343;42.896;23.912;2022-07-29T14:47:33;96431.69;;;37.33;35.31
6615;BME280;3343;42.896;23.912;2022-07-29T14:50:00;96433.25;;;36.76;38.06
6615;BME280;3343;42.896;23.912;2022-07-29T14:52:27;96439.06;;;36.75;37.21
6615;BME280;3343;42.896;23.912;2022-07-29T14:54:54;96439.03;;;37.10;36.29
6615;BME280;3343;42.896;23.912;2022-07-29T14:57:21;96438.72;;;37.30;34.30
6615;BME280;3343;42.896;23.912;2022-07-29T14:59:49;96440.97;;;36.90;35.26
6615;BME280;3343;42.896;23.912;2022-07-29T15:02:16;96447.53;;;36.19;34.72
6615;BME280;3343;42.896;23.912;2022-07-29T15:04:43;96441.63;;;36.32;34.67
6615;BME280;3343;42.896;23.912;2022-07-29T15:07:11;96433.31;;;36.13;35.17
6615;BME280;3343;42.896;23.912;2022-07-29T15:09:38;96430.88;;;37.52;32.16
6615;BME280;3343;42.896;23.912;2022-07-29T15:12:06;96420.28;;;37.31;32.64
6615;BME280;3343;42.896;23.912;2022-07-29T15:14:33;96434.47;;;37.56;32.14
6615;BME280;3343;42.896;23.912;2022-07-29T15:17:02;96416.56;;;37.85;31.80
6615;BME280;3343;42.896;23.912;2022-07-29T15:19:29;96424.56;;;37.93;31.09
6615;BME280;3343;42.896;23.912;2022-07-29T15:21:56;96419.28;;;37.62;31.47
6615;BME280;3343;42.896;23.912;2022-07-29T15:24:23;96419.06;;;37.71;31.82